createdAt,value
2017-10-18T00:03:50.117Z,101333.21
2017-10-18T00:08:52.061Z,101332.47
2017-10-18T00:13:54.104Z,101329.66
2017-10-18T00:18:56.055Z,101331.05
2017-10-18T00:23:59.060Z,101334.63
2017-10-18T00:29:01.162Z,101325.58
2017-10-18T00:34:03.421Z,101315.94
2017-10-18T00:39:05.388Z,101305.16
2017-10-18T00:44:08.349Z,101306.78
2017-10-18T00:49:11.240Z,101299.34
2017-10-18T00:54:13.265Z,101302.70
2017-10-18T00:59:16.832Z,101305.64
2017-10-18T01:04:18.925Z,101303.08
2017-10-18T01:09:20.957Z,101290.20
2017-10-18T01:14:22.868Z,101292.94
2017-10-18T01:19:24.776Z,101283.66
2017-10-18T01:24:26.700Z,101279.96
2017-10-18T01:29:28.639Z,101285.20
2017-10-18T01:34:31.299Z,101275.25
2017-10-18T01:39:33.288Z,101260.53
2017-10-18T01:44:35.255Z,101274.02
2017-10-18T01:49:37.971Z,101265.95
2017-10-18T01:54:39.915Z,101262.19
2017-10-18T01:59:41.920Z,101263.91
2017-10-18T02:04:43.896Z,101256.44
2017-10-18T02:09:46.540Z,101258.36
2017-10-18T02:14:48.455Z,101256.55
2017-10-18T02:19:50.382Z,101257.33
2017-10-18T02:24:52.307Z,101259.84
2017-10-18T02:29:54.224Z,101254.41
2017-10-18T02:34:56.899Z,101260.34
2017-10-18T02:39:58.816Z,101264.67
2017-10-18T02:45:00.723Z,101251.94
2017-10-18T02:50:02.641Z,101242.58
2017-10-18T02:55:04.547Z,101248.70
2017-10-18T03:00:06.488Z,101247.75
2017-10-18T03:05:08.431Z,101230.84
2017-10-18T03:10:10.391Z,101232.00
2017-10-18T03:15:12.363Z,101236.92
2017-10-18T03:20:14.284Z,101233.55
2017-10-18T03:25:16.255Z,101228.47
2017-10-18T03:30:18.248Z,101228.76
2017-10-18T03:35:20.226Z,101223.87
2017-10-18T03:40:22.358Z,101218.88
2017-10-18T03:45:24.299Z,101206.42
2017-10-18T03:50:26.206Z,101206.39
2017-10-18T03:55:28.115Z,101209.20
2017-10-18T04:00:30.767Z,101198.78
2017-10-18T04:05:32.663Z,101193.26
2017-10-18T04:10:34.595Z,101181.81
2017-10-18T04:15:36.507Z,101184.93
2017-10-18T04:20:39.462Z,101178.93
2017-10-18T04:25:45.918Z,101181.32
2017-10-18T04:30:49.506Z,101190.84
2017-10-18T04:36:00.602Z,101180.95
2017-10-18T04:41:06.956Z,101167.77
2017-10-18T04:46:10.942Z,101180.38
2017-10-18T04:51:14.212Z,101171.00
2017-10-18T04:56:21.585Z,101159.23
2017-10-18T05:01:31.217Z,101160.48
2017-10-18T05:06:37.290Z,101167.94
2017-10-18T05:11:46.584Z,101145.53
2017-10-18T05:16:50.263Z,101147.66
2017-10-18T05:21:57.898Z,101149.32
2017-10-18T05:27:03.628Z,101140.02
2017-10-18T05:32:10.407Z,101144.46
2017-10-18T05:37:13.110Z,101148.71
2017-10-18T05:42:15.080Z,101136.45
2017-10-18T05:47:17.034Z,101133.98
2017-10-18T05:52:18.929Z,101141.11
2017-10-18T05:57:20.856Z,101136.98
2017-10-18T06:02:23.482Z,101127.39
2017-10-18T06:07:26.148Z,101129.55
2017-10-18T06:12:28.090Z,101128.15
2017-10-18T06:17:35.159Z,101120.81
2017-10-18T06:22:39.595Z,101119.41
2017-10-18T06:27:42.869Z,101121.58
2017-10-18T06:32:47.840Z,101111.73
2017-10-18T06:37:55.242Z,101108.45
2017-10-18T06:43:02.276Z,101117.09
2017-10-18T06:48:09.455Z,101110.39
2017-10-18T06:53:12.967Z,101096.50
2017-10-18T06:58:16.818Z,101105.30
2017-10-18T07:03:19.953Z,101111.31
2017-10-18T07:08:23.767Z,101104.09
2017-10-18T07:13:26.116Z,101096.20
2017-10-18T07:18:32.343Z,101101.19
2017-10-18T07:23:37.588Z,101105.52
2017-10-18T07:28:44.787Z,101091.13
2017-10-18T07:33:51.295Z,101087.80
2017-10-18T07:38:56.358Z,101080.08
2017-10-18T07:44:02.880Z,101077.39
2017-10-18T07:49:05.310Z,101074.58
2017-10-18T07:54:11.068Z,101071.75
2017-10-18T07:59:17.744Z,101063.75
2017-10-18T08:04:24.424Z,101053.75
2017-10-18T08:09:27.888Z,101048.61
2017-10-18T08:14:30.857Z,101052.64
2017-10-18T08:19:35.908Z,101046.62
2017-10-18T08:24:40.750Z,101046.00
2017-10-18T08:29:46.942Z,101053.02
2017-10-18T08:34:54.512Z,101052.48
2017-10-18T08:39:57.151Z,101051.48
2017-10-18T08:45:04.797Z,101050.00
2017-10-18T08:50:07.944Z,101046.70
2017-10-18T08:55:12.771Z,101042.77
2017-10-18T09:00:16.892Z,101036.27
2017-10-18T09:05:20.136Z,101041.53
2017-10-18T09:10:27.064Z,101040.17
2017-10-18T09:15:31.419Z,101040.91
2017-10-18T09:20:34.824Z,101035.02
2017-10-18T09:25:41.428Z,101032.51
2017-10-18T09:30:45.514Z,101039.28
2017-10-18T09:35:50.239Z,101030.55
2017-10-18T09:40:57.520Z,101030.48
2017-10-18T09:46:03.336Z,101015.95
2017-10-18T09:51:06.686Z,101018.31
2017-10-18T09:56:12.613Z,101021.42
2017-10-18T10:01:16.213Z,101016.83
2017-10-18T10:06:19.037Z,101010.20
2017-10-18T10:11:25.577Z,101007.50
2017-10-18T10:16:30.830Z,101012.27
2017-10-18T10:21:32.791Z,101010.91
2017-10-18T10:26:35.604Z,101018.12
2017-10-18T10:31:38.439Z,101013.09
2017-10-18T10:36:41.122Z,101010.66
2017-10-18T10:41:43.811Z,101008.91
2017-10-18T10:46:59.166Z,101001.91
2017-10-18T10:52:02.048Z,100999.58
2017-10-18T10:57:15.926Z,100999.52
2017-10-18T11:02:31.123Z,100996.14
2017-10-18T11:07:34.049Z,100975.05
2017-10-18T11:12:36.872Z,100984.30
2017-10-18T11:17:39.675Z,100973.75
2017-10-18T11:22:42.522Z,100972.16
2017-10-18T11:27:45.387Z,100964.45
2017-10-18T11:32:49.488Z,100963.94
2017-10-18T11:43:26.869Z,100947.58
2017-10-18T11:48:43.897Z,100953.34
2017-10-18T11:53:54.507Z,100953.23
2017-10-18T12:04:23.407Z,100944.44
2017-10-18T12:09:36.608Z,100945.20
2017-10-18T12:14:40.840Z,100937.67
2017-10-18T12:20:03.738Z,100936.33
2017-10-18T12:25:08.103Z,100925.13
2017-10-18T12:35:42.055Z,100927.54
2017-10-18T12:46:30.302Z,100932.62
2017-10-18T12:51:38.120Z,100926.98
2017-10-18T12:56:51.894Z,100932.37
2017-10-18T13:01:54.720Z,100921.34
2017-10-18T13:07:17.027Z,100917.72
2017-10-18T13:12:31.427Z,100910.63
2017-10-18T13:17:40.617Z,100912.83
2017-10-18T13:22:59.002Z,100904.52
2017-10-18T13:33:26.042Z,100887.03
2017-10-18T13:38:39.701Z,100887.05
2017-10-18T13:43:49.901Z,100883.16
2017-10-18T13:49:04.750Z,100887.22
2017-10-18T13:54:18.478Z,100891.39
2017-10-18T13:59:24.111Z,100886.43
2017-10-18T14:04:43.358Z,100877.72
2017-10-18T14:09:58.230Z,100880.08
2017-10-18T14:15:10.473Z,100853.89
2017-10-18T14:20:25.778Z,100885.78
2017-10-18T14:25:30.580Z,100883.09
2017-10-18T14:30:33.880Z,100883.42
2017-10-18T14:35:44.543Z,100876.09
2017-10-18T14:40:58.104Z,100878.09
2017-10-18T14:46:02.600Z,100872.83
2017-10-18T14:51:15.517Z,100873.53
2017-10-18T14:56:18.713Z,100868.42
2017-10-18T15:01:21.414Z,100874.05
2017-10-18T15:06:23.437Z,100872.11
2017-10-18T15:11:25.647Z,100877.09
2017-10-18T15:16:27.593Z,100872.77
2017-10-18T15:21:30.320Z,100871.20
2017-10-18T15:26:32.960Z,100865.83
2017-10-18T15:31:36.491Z,100868.39
2017-10-18T15:36:39.148Z,100867.92
2017-10-18T15:41:41.176Z,100867.67
2017-10-18T15:46:43.282Z,100863.27
2017-10-18T15:51:45.348Z,100870.53
2017-10-18T15:56:49.502Z,100872.98
2017-10-18T16:01:53.502Z,100878.18
2017-10-18T16:06:56.303Z,100882.61
2017-10-18T16:11:59.135Z,100884.26
2017-10-18T16:17:02.286Z,100886.23
2017-10-18T16:22:05.231Z,100892.27
2017-10-18T16:27:08.823Z,100888.77
2017-10-18T16:32:10.770Z,100892.05
2017-10-18T16:37:14.427Z,100897.34
2017-10-18T16:42:17.351Z,100899.61
2017-10-18T16:47:20.037Z,100899.14
2017-10-18T16:52:22.024Z,100903.30
2017-10-18T16:57:25.204Z,100908.31
2017-10-18T17:02:27.303Z,100911.62
2017-10-18T17:07:29.264Z,100910.74
2017-10-18T17:12:31.260Z,100904.73
2017-10-18T17:17:34.203Z,100909.96
2017-10-18T17:22:40.900Z,100906.36
2017-10-18T17:27:49.123Z,100910.83
2017-10-18T17:32:52.069Z,100905.72
2017-10-18T17:37:54.826Z,100905.09
2017-10-18T17:42:57.612Z,100903.95
2017-10-18T17:48:00.360Z,100903.33
2017-10-18T17:53:02.986Z,100902.91
2017-10-18T17:58:05.953Z,100909.06
2017-10-18T18:03:08.005Z,100907.73
2017-10-18T18:08:10.105Z,100903.70
2017-10-18T18:13:12.125Z,100901.43
2017-10-18T18:18:14.194Z,100903.87
2017-10-18T18:23:16.136Z,100910.30
2017-10-18T18:28:18.039Z,100907.31
2017-10-18T18:33:20.893Z,100907.55
2017-10-18T18:38:22.995Z,100909.04
2017-10-18T18:43:25.147Z,100904.73
2017-10-18T18:48:27.826Z,100912.42
2017-10-18T18:53:29.796Z,100912.16
2017-10-18T18:58:31.774Z,100908.88
2017-10-18T19:03:36.924Z,100903.19
2017-10-18T19:14:19.585Z,100900.80
2017-10-18T19:19:23.816Z,100902.72
2017-10-18T19:24:27.767Z,100900.35
2017-10-18T19:29:29.667Z,100904.60
2017-10-18T19:34:32.636Z,100903.47
2017-10-18T19:39:35.610Z,100911.95
2017-10-18T19:44:37.584Z,100917.25
2017-10-18T19:49:40.607Z,100918.64
2017-10-18T19:54:42.546Z,100917.05
2017-10-18T19:59:44.473Z,100914.49
2017-10-18T20:04:46.571Z,100907.86
2017-10-18T20:09:48.950Z,100915.37
2017-10-18T20:14:52.635Z,100911.81
2017-10-18T20:19:55.796Z,100912.50
2017-10-18T20:24:57.753Z,100910.95
2017-10-18T20:29:59.976Z,100920.64
2017-10-18T20:35:01.946Z,100916.66
2017-10-18T20:40:04.178Z,100922.89
2017-10-18T20:45:06.302Z,100922.95
2017-10-18T20:50:08.963Z,100893.63
2017-10-18T20:55:10.965Z,100922.26
2017-10-18T21:00:12.904Z,100922.55
2017-10-18T21:05:15.012Z,100922.27
2017-10-18T21:10:16.983Z,100921.64
2017-10-18T21:15:18.991Z,100919.45
2017-10-18T21:20:21.063Z,100905.38
2017-10-18T21:25:23.956Z,100911.93
2017-10-18T21:30:28.165Z,100908.70
2017-10-18T21:35:30.156Z,100903.08
2017-10-18T21:40:33.054Z,100898.44
2017-10-18T21:45:37.527Z,100895.76
2017-10-18T21:50:39.522Z,100892.02
2017-10-18T21:55:41.435Z,100896.66
2017-10-18T22:00:43.380Z,100895.84
2017-10-18T22:05:46.147Z,100891.27
2017-10-18T22:10:48.070Z,100886.87
2017-10-18T22:15:50.147Z,100889.98
2017-10-18T22:20:52.115Z,100842.94
2017-10-18T22:25:54.188Z,100888.56
2017-10-18T22:30:56.184Z,100883.39
2017-10-18T22:35:58.110Z,100887.75
2017-10-18T22:41:00.849Z,100858.84
2017-10-18T22:46:02.862Z,100886.81
2017-10-18T22:51:04.815Z,100889.55
2017-10-18T22:56:06.731Z,100886.92
2017-10-18T23:01:08.648Z,100889.08
2017-10-18T23:06:10.677Z,100891.63
2017-10-18T23:11:12.594Z,100886.70
2017-10-18T23:16:14.615Z,100892.44
2017-10-18T23:21:16.541Z,100893.76
2017-10-18T23:26:18.473Z,100881.43
2017-10-18T23:31:21.214Z,100891.73
2017-10-18T23:36:23.259Z,100883.66
2017-10-18T23:41:25.254Z,100883.09
2017-10-18T23:46:27.231Z,100886.73
2017-10-18T23:51:29.165Z,100882.13
2017-10-18T23:56:31.075Z,100887.67
